Time;durP1;ratioP1;P1;durP2;ratioP2;P2;SDS_P1;SDS_P2;PMS_P1;PMS_P2;Temp;Humidity;BMP_temperature;BMP_pressure;BME280_temperature;BME280_humidity;BME280_pressure;Samples;Min_cycle;Max_cycle;Signal;HPM_P1;HPM_P2
2023/07/13 00:00:36;;;;;;;8.57;1.63;;;17.70;1.00;;;;;;4995076;28;20514;-73
2023/07/13 00:03:04;;;;;;;3.53;1.57;;;17.80;1.00;;;;;;4997272;28;20466;-73
2023/07/13 00:05:31;;;;;;;3.87;1.60;;;17.90;1.00;;;;;;4995404;28;20942;-73
2023/07/13 00:07:58;;;;;;;3.80;1.33;;;17.90;1.00;;;;;;4997003;28;20958;-73
2023/07/13 00:10:24;;;;;;;8.97;1.50;;;18.00;1.00;;;;;;4999660;28;20925;-73
2023/07/13 00:12:54;;;;;;;3.33;1.63;;;18.00;1.00;;;;;;5002132;28;20450;-81
2023/07/13 00:15:35;;;;;;;3.47;1.87;;;18.00;1.00;;;;;;5015737;28;20647;-81
2023/07/13 00:28:06;;;;;;;4.67;1.60;;;18.20;1.00;;;;;;4987385;28;20473;-73
2023/07/13 00:30:32;;;;;;;8.10;1.60;;;18.20;1.00;;;;;;4997435;28;20467;-73
2023/07/13 00:32:59;;;;;;;1.33;1.23;;;18.20;1.00;;;;;;4995798;28;20196;-73
2023/07/13 00:35:26;;;;;;;1.70;1.57;;;18.10;1.00;;;;;;4990960;28;20180;-73
2023/07/13 00:37:51;;;;;;;3.30;1.70;;;18.00;1.00;;;;;;4995833;28;20431;-72
2023/07/13 00:40:17;;;;;;;3.40;1.60;;;18.00;1.00;;;;;;4997729;28;20402;-73
2023/07/13 00:46:13;;;;;;;2.40;1.40;;;17.80;1.00;;;;;;4985121;28;20920;-81
2023/07/13 00:49:34;;;;;;;2.33;1.60;;;17.70;1.00;;;;;;5010274;28;20803;-81
2023/07/13 00:55:22;;;;;;;5.80;1.50;;;17.40;1.00;;;;;;4999341;28;20930;-81
2023/07/13 00:57:58;;;;;;;5.43;1.50;;;17.40;1.00;;;;;;4994651;28;20435;-73
2023/07/13 01:00:26;;;;;;;2.63;1.50;;;17.30;1.00;;;;;;4999562;28;20525;-73
2023/07/13 01:02:52;;;;;;;4.53;1.57;;;17.20;1.00;;;;;;4990964;28;20458;-73
2023/07/13 01:05:21;;;;;;;4.10;1.50;;;17.20;1.00;;;;;;4998142;28;20414;-73
2023/07/13 01:07:49;;;;;;;2.40;1.67;;;17.10;1.00;;;;;;4999010;28;20423;-73
2023/07/13 01:10:15;;;;;;;4.37;1.60;;;17.00;1.00;;;;;;4998862;28;20388;-73
2023/07/13 01:12:42;;;;;;;2.70;1.50;;;17.00;1.00;;;;;;4999150;28;20423;-73
2023/07/13 01:15:46;;;;;;;4.23;1.30;;;16.90;1.00;;;;;;4993040;28;20409;-73
2023/07/13 01:18:18;;;;;;;3.10;1.40;;;16.90;1.00;;;;;;4991483;28;20504;-73
2023/07/13 01:21:03;;;;;;;9.00;1.53;;;16.80;1.00;;;;;;4994053;28;20409;-72
2023/07/13 01:23:30;;;;;;;4.03;1.30;;;16.70;1.00;;;;;;4980550;28;20495;-72
2023/07/13 01:25:57;;;;;;;1.30;1.20;;;16.60;1.00;;;;;;4994430;28;20438;-72
2023/07/13 01:28:36;;;;;;;1.20;1.10;;;16.60;1.00;;;;;;4994947;28;20413;-81
2023/07/13 01:31:11;;;;;;;1.37;1.27;;;16.50;1.00;;;;;;5007667;28;20426;-81
2023/07/13 01:36:59;;;;;;;3.77;1.50;;;16.50;1.00;;;;;;4987232;28;20855;-81
2023/07/13 01:42:46;;;;;;;3.67;1.40;;;16.40;1.00;;;;;;4980824;28;20272;-73
2023/07/13 01:45:12;;;;;;;2.03;1.77;;;16.30;1.00;;;;;;4999445;28;20899;-73
2023/07/13 01:47:37;;;;;;;2.70;1.40;;;16.30;1.00;;;;;;4996195;28;20519;-73
2023/07/13 01:50:04;;;;;;;3.93;1.77;;;16.30;1.00;;;;;;4985274;28;20653;-73
2023/07/13 01:52:30;;;;;;;1.57;1.47;;;16.30;1.00;;;;;;4993538;28;20587;-73
2023/07/13 01:54:55;;;;;;;1.50;1.33;;;16.20;1.00;;;;;;4994568;28;20417;-73
2023/07/13 01:57:21;;;;;;;2.07;1.37;;;16.20;1.00;;;;;;4991126;28;20221;-72
2023/07/13 01:59:47;;;;;;;5.00;1.70;;;16.20;1.00;;;;;;5002212;28;20199;-73
2023/07/13 02:02:12;;;;;;;2.83;1.53;;;16.10;1.00;;;;;;4997788;28;20201;-73
2023/07/13 02:04:38;;;;;;;1.87;1.37;;;16.10;1.00;;;;;;4996278;28;20218;-73
2023/07/13 02:07:04;;;;;;;2.00;1.50;;;16.10;1.00;;;;;;5008289;28;20244;-73
2023/07/13 02:09:31;;;;;;;3.63;2.47;;;16.00;1.00;;;;;;4992121;28;20178;-73
2023/07/13 02:11:58;;;;;;;7.00;1.90;;;16.00;1.00;;;;;;4991870;28;20792;-73
2023/07/13 02:14:46;;;;;;;6.00;2.13;;;16.00;1.00;;;;;;4986846;28;21067;-81
2023/07/13 02:17:58;;;;;;;6.47;1.57;;;16.00;1.00;;;;;;4989247;28;20464;-81
2023/07/13 02:27:07;;;;;;;3.93;1.67;;;15.90;1.00;;;;;;4984629;28;20458;-81
2023/07/13 02:33:16;;;;;;;2.90;1.70;;;15.80;1.00;;;;;;5000733;28;20208;-80
2023/07/13 02:39:05;;;;;;;2.90;1.60;;;15.60;1.00;;;;;;5004955;28;20445;-81
2023/07/13 02:44:58;;;;;;;6.47;2.70;;;15.40;1.00;;;;;;5005198;28;20794;-73
2023/07/13 02:47:24;;;;;;;5.03;1.80;;;15.50;1.00;;;;;;4999463;28;20868;-73
2023/07/13 02:49:50;;;;;;;7.70;1.70;;;15.40;1.00;;;;;;5006289;28;20488;-73
2023/07/13 02:52:15;;;;;;;3.73;1.60;;;15.50;1.00;;;;;;5003329;28;20185;-73
2023/07/13 02:54:41;;;;;;;2.70;1.80;;;15.30;1.00;;;;;;4994519;28;20872;-73
2023/07/13 02:57:07;;;;;;;1.50;1.40;;;15.30;1.00;;;;;;4999626;28;20194;-73
2023/07/13 02:59:46;;;;;;;3.30;1.53;;;15.30;1.00;;;;;;5008376;28;20595;-81
2023/07/13 03:08:56;;;;;;;5.67;1.90;;;15.20;1.00;;;;;;4996757;28;20897;-81
2023/07/13 03:14:58;;;;;;;3.60;1.80;;;15.10;1.00;;;;;;4998284;28;20184;-88
2023/07/13 03:20:46;;;;;;;3.40;1.73;;;14.90;1.00;;;;;;4989966;28;20539;-88
2023/07/13 03:26:33;;;;;;;9.10;2.10;;;14.80;1.00;;;;;;5017663;28;20677;-87
2023/07/13 03:29:40;;;;;;;3.17;1.70;;;14.80;1.00;;;;;;5014164;28;20414;-90
2023/07/13 03:32:06;;;;;;;3.90;1.77;;;14.80;1.00;;;;;;4997264;28;20222;-90
2023/07/13 03:38:01;;;;;;;1.60;1.50;;;14.70;1.00;;;;;;4996441;28;20491;-90
2023/07/13 03:43:49;;;;;;;10.00;2.17;;;14.60;1.00;;;;;;5017188;28;20426;-88
2023/07/13 03:46:40;;;;;;;6.13;2.60;;;14.60;1.00;;;;;;5015968;28;20435;-88
2023/07/13 03:52:28;;;;;;;7.80;1.90;;;14.60;1.00;;;;;;5002466;28;20896;-88
2023/07/13 03:55:06;;;;;;;5.00;2.00;;;14.50;1.00;;;;;;5032317;28;20394;-88
2023/07/13 04:00:53;;;;;;;5.43;2.20;;;14.60;1.00;;;;;;4996828;28;20396;-88
2023/07/13 04:06:46;;;;;;;7.03;1.77;;;14.60;1.00;;;;;;5002219;28;20450;-88
2023/07/13 04:09:40;;;;;;;15.50;2.10;;;14.60;1.00;;;;;;5005244;28;20422;-88
2023/07/13 04:12:40;;;;;;;3.50;2.27;;;14.70;1.00;;;;;;4976990;28;20420;-88
2023/07/13 04:15:40;;;;;;;2.80;1.80;;;14.70;1.00;;;;;;4995091;28;20420;-88
2023/07/13 04:18:41;;;;;;;8.67;2.27;;;14.80;1.00;;;;;;4997672;28;20404;-88
2023/07/13 04:24:35;;;;;;;2.30;2.03;;;14.70;1.00;;;;;;4996661;28;20879;-87
2023/07/13 04:27:02;;;;;;;19.20;2.80;;;15.10;1.00;;;;;;4995822;28;20459;-88
2023/07/13 04:29:28;;;;;;;2.53;1.90;;;14.70;1.00;;;;;;4996242;28;20434;-89
2023/07/13 04:32:40;;;;;;;2.57;1.80;;;14.80;1.00;;;;;;4995507;28;20395;-90
2023/07/13 04:35:22;;;;;;;3.80;1.90;;;14.80;1.00;;;;;;4992523;28;20443;-89
2023/07/13 04:38:24;;;;;;;4.23;2.17;;;15.00;1.00;;;;;;4976254;28;20423;-89
2023/07/13 04:41:28;;;;;;;3.53;1.83;;;14.90;1.00;;;;;;4990409;28;20415;-90
2023/07/13 04:44:40;;;;;;;25.67;3.03;;;15.00;1.00;;;;;;4992557;28;20464;-87
2023/07/13 04:47:40;;;;;;;2.00;1.80;;;15.00;1.00;;;;;;5021519;28;20477;-87
2023/07/13 04:50:07;;;;;;;5.23;1.93;;;15.00;1.00;;;;;;5010991;28;20408;-88
2023/07/13 04:52:34;;;;;;;3.90;2.03;;;15.10;1.00;;;;;;4975984;28;20425;-88
2023/07/13 04:55:11;;;;;;;3.73;1.80;;;15.20;1.00;;;;;;4988140;28;20449;-90
2023/07/13 04:58:10;;;;;;;4.87;1.90;;;15.20;1.00;;;;;;4996202;28;20867;-89
2023/07/13 05:01:10;;;;;;;6.43;2.00;;;15.30;1.00;;;;;;5005497;28;20463;-89
2023/07/13 05:04:10;;;;;;;3.93;2.20;;;15.40;1.00;;;;;;4984772;28;20543;-89
2023/07/13 05:07:05;;;;;;;10.83;2.00;;;15.50;1.00;;;;;;5013575;28;20441;-89
2023/07/13 05:10:10;;;;;;;4.20;2.20;;;15.60;1.00;;;;;;4994990;28;20972;-89
2023/07/13 05:13:13;;;;;;;2.60;1.70;;;15.70;1.00;;;;;;5011006;28;20444;-86
2023/07/13 05:16:10;;;;;;;8.87;2.03;;;15.80;1.00;;;;;;4997742;28;20497;-92
2023/07/13 05:22:10;;;;;;;22.27;2.03;;;16.00;1.00;;;;;;4982804;28;20468;-93
2023/07/13 05:32:04;;;;;;;5.03;1.20;;;16.40;1.00;;;;;;5015760;28;20347;-92
2023/07/13 05:35:10;;;;;;;2.63;1.27;;;16.50;1.00;;;;;;5001517;28;20434;-92
2023/07/13 05:38:22;;;;;;;3.90;1.40;;;16.90;1.00;;;;;;5012394;28;20426;-92
2023/07/13 05:41:13;;;;;;;4.77;1.17;;;16.90;1.00;;;;;;4998801;28;20413;-91
2023/07/13 05:43:39;;;;;;;2.83;1.57;;;17.20;1.00;;;;;;5000511;28;20481;-91
2023/07/13 05:49:41;;;;;;;1.10;0.93;;;;;;;;;;4975605;28;20199;-91
2023/07/13 05:52:40;;;;;;;4.30;1.20;;;17.90;1.00;;;;;;4991407;28;20412;-91
2023/07/13 05:55:11;;;;;;;1.40;0.90;;;18.10;1.00;;;;;;5008362;28;20483;-91
2023/07/13 05:57:47;;;;;;;4.20;1.00;;;18.30;1.00;;;;;;5027769;28;20446;-90
2023/07/13 06:04:11;;;;;;;2.03;1.07;;;18.50;1.00;;;;;;4987099;28;20477;-91
2023/07/13 06:06:47;;;;;;;3.03;1.10;;;;;;;;;;5025876;28;20490;-90
2023/07/13 06:09:13;;;;;;;3.30;1.20;;;18.80;1.00;;;;;;5003501;28;20405;-89
2023/07/13 06:12:10;;;;;;;5.43;1.00;;;18.90;1.00;;;;;;4998323;28;20779;-90
2023/07/13 06:14:40;;;;;;;5.93;1.17;;;19.00;1.00;;;;;;5013690;28;20180;-90
2023/07/13 06:21:24;;;;;;;1.00;0.90;;;19.20;1.00;;;;;;4992204;28;20420;-90
2023/07/13 06:24:40;;;;;;;0.97;0.87;;;19.40;1.00;;;;;;4934261;29;20893;-90
2023/07/13 06:27:06;;;;;;;2.37;1.10;;;19.40;1.00;;;;;;4936037;29;20553;-89
2023/07/13 06:29:31;;;;;;;1.03;0.93;;;19.60;1.00;;;;;;4938392;29;20545;-89
2023/07/13 06:32:40;;;;;;;4.77;1.17;;;19.60;1.00;;;;;;4928587;29;20295;-89
2023/07/13 06:35:12;;;;;;;4.50;1.27;;;;;;;;;;4934875;29;20282;-90
2023/07/13 06:38:10;;;;;;;4.83;1.30;;;19.80;1.00;;;;;;4935309;29;20432;-89
2023/07/13 06:41:10;;;;;;;4.67;1.10;;;19.80;1.00;;;;;;4928258;29;20455;-90
2023/07/13 06:43:40;;;;;;;2.97;0.90;;;20.10;1.00;;;;;;4930406;29;20475;-90
2023/07/13 06:46:10;;;;;;;2.50;1.00;;;20.40;1.00;;;;;;4932889;29;20440;-89
2023/07/13 06:49:10;;;;;;;2.70;1.10;;;20.40;1.00;;;;;;4914249;29;20447;-89
2023/07/13 06:52:10;;;;;;;4.37;0.90;;;20.60;1.00;;;;;;4915846;29;20532;-89
2023/07/13 06:55:10;;;;;;;1.10;0.70;;;20.60;1.00;;;;;;4922482;29;20467;-89
2023/07/13 06:57:40;;;;;;;0.80;0.80;;;20.80;1.00;;;;;;4958319;28;20438;-88
2023/07/13 07:00:11;;;;;;;3.87;0.80;;;21.00;1.00;;;;;;5003796;28;20949;-89
2023/07/13 07:02:37;;;;;;;2.00;0.77;;;21.00;1.00;;;;;;5002607;28;20435;-89
2023/07/13 07:05:10;;;;;;;4.83;0.90;;;21.10;1.00;;;;;;4993186;28;20430;-88
2023/07/13 07:08:04;;;;;;;11.33;1.00;;;21.30;1.00;;;;;;4983671;28;20418;-90
2023/07/13 07:10:53;;;;;;;3.40;0.87;;;21.40;1.00;;;;;;5014854;28;20413;-88
2023/07/13 07:13:40;;;;;;;3.37;0.70;;;21.50;1.00;;;;;;5016698;28;20408;-89
2023/07/13 07:16:10;;;;;;;7.07;1.00;;;21.60;1.00;;;;;;5008878;28;20440;-88
2023/07/13 07:19:10;;;;;;;6.67;0.80;;;21.80;1.00;;;;;;5002327;28;20431;-88
2023/07/13 07:22:04;;;;;;;1.30;1.00;;;21.90;1.00;;;;;;4996751;28;20427;-88
2023/07/13 07:24:40;;;;;;;3.40;1.23;;;22.10;1.00;;;;;;4996594;28;20550;-89
2023/07/13 07:27:06;;;;;;;6.20;0.90;;;22.30;1.00;;;;;;4996571;28;20947;-89
2023/07/13 07:29:32;;;;;;;7.13;1.00;;;22.30;1.00;;;;;;4996738;28;20416;-89
2023/07/13 07:32:11;;;;;;;1.90;0.90;;;22.30;1.00;;;;;;5006353;28;20185;-89
2023/07/13 07:34:40;;;;;;;1.43;0.70;;;22.40;1.00;;;;;;4998704;28;20185;-90
2023/07/13 07:37:06;;;;;;;3.07;0.90;;;22.60;1.00;;;;;;4996634;28;20429;-90
2023/07/13 07:39:40;;;;;;;0.87;0.70;;;22.50;1.00;;;;;;5005653;28;20496;-88
2023/07/13 07:42:07;;;;;;;2.43;0.90;;;22.70;1.00;;;;;;5011984;28;20191;-89
2023/07/13 07:44:32;;;;;;;1.47;0.70;;;22.60;1.00;;;;;;4997256;28;20487;-89
2023/07/13 07:47:04;;;;;;;5.70;1.20;;;22.70;1.00;;;;;;4992963;28;20421;-89
2023/07/13 07:49:46;;;;;;;4.50;0.83;;;22.70;1.00;;;;;;5000001;28;20213;-91
2023/07/13 07:52:16;;;;;;;2.60;1.10;;;22.60;1.00;;;;;;4990913;28;20435;-89
2023/07/13 07:55:16;;;;;;;6.10;1.00;;;22.50;1.00;;;;;;4989751;28;20434;-88
2023/07/13 07:58:16;;;;;;;4.07;1.00;;;22.50;1.00;;;;;;5004581;28;20440;-89
2023/07/13 08:04:04;;;;;;;5.03;1.00;;;22.80;1.00;;;;;;4998815;28;20958;-88
2023/07/13 08:06:33;;;;;;;5.03;0.90;;;22.90;1.00;;;;;;4998915;28;20519;-91
2023/07/13 08:09:16;;;;;;;5.07;1.17;;;22.90;1.00;;;;;;5007442;28;20191;-89
2023/07/13 08:15:23;;;;;;;1.57;0.80;;;23.40;1.00;;;;;;4992043;28;20433;-87
2023/07/13 08:17:52;;;;;;;1.83;0.70;;;23.30;1.00;;;;;;4996954;28;20424;-87
2023/07/13 08:20:29;;;;;;;3.87;0.93;;;;;;;;;;5010313;28;20427;-86
2023/07/13 08:23:11;;;;;;;2.73;0.70;;;23.50;1.00;;;;;;5015936;28;20476;-86
2023/07/13 08:25:36;;;;;;;1.33;0.80;;;23.50;1.00;;;;;;4996534;28;20418;-86
2023/07/13 08:28:04;;;;;;;2.40;0.90;;;23.70;1.00;;;;;;4995512;28;20521;-87
2023/07/13 08:30:29;;;;;;;4.90;0.70;;;23.70;1.00;;;;;;5005986;28;20189;-86
2023/07/13 08:32:55;;;;;;;17.03;0.97;;;24.00;1.00;;;;;;5001884;28;20485;-87
2023/07/13 08:35:21;;;;;;;1.37;0.73;;;25.80;1.00;;;;;;4995009;28;20198;-87
2023/07/13 08:37:47;;;;;;;2.80;1.30;;;24.10;1.00;;;;;;5003613;28;20447;-87
2023/07/13 08:40:13;;;;;;;4.63;0.80;;;24.00;1.00;;;;;;5014609;28;20946;-86
2023/07/13 08:42:46;;;;;;;9.37;0.83;;;23.90;1.00;;;;;;4998925;28;20189;-86
2023/07/13 08:45:12;;;;;;;5.47;0.90;;;23.80;1.00;;;;;;5004758;28;20459;-87
2023/07/13 08:47:42;;;;;;;2.70;1.00;;;23.80;1.00;;;;;;4985841;28;20926;-91
2023/07/13 08:50:14;;;;;;;1.43;0.97;;;23.80;1.00;;;;;;5003243;28;20187;-90
2023/07/13 08:52:43;;;;;;;2.90;0.80;;;23.80;1.00;;;;;;4995943;28;20553;-90
2023/07/13 08:58:31;;;;;;;3.33;0.87;;;24.10;1.00;;;;;;4993709;28;20435;-90
2023/07/13 09:01:46;;;;;;;18.23;1.00;;;24.30;1.00;;;;;;5011876;28;20441;-91
2023/07/13 09:08:10;;;;;;;1.93;0.70;;;24.50;1.00;;;;;;5014439;28;20494;-88
2023/07/13 09:13:57;;;;;;;2.67;0.80;;;24.30;1.00;;;;;;5015594;28;20747;-90
2023/07/13 09:17:04;;;;;;;3.03;0.80;;;24.40;1.00;;;;;;4994320;28;20437;-89
2023/07/13 09:20:22;;;;;;;4.17;0.80;;;24.30;1.00;;;;;;4991549;28;20232;-92
2023/07/13 09:23:14;;;;;;;2.30;0.80;;;24.50;1.00;;;;;;4997198;28;20468;-91
2023/07/13 09:25:43;;;;;;;1.57;0.50;;;24.60;1.00;;;;;;5001646;28;20432;-92
2023/07/13 09:28:16;;;;;;;1.20;0.70;;;24.70;1.00;;;;;;5010384;28;20558;-91
2023/07/13 09:31:05;;;;;;;1.50;0.90;;;24.70;1.00;;;;;;5000310;28;20436;-91
2023/07/13 09:33:41;;;;;;;2.30;0.70;;;24.70;1.00;;;;;;4986365;28;20433;-91
2023/07/13 09:36:34;;;;;;;1.87;0.90;;;24.90;1.00;;;;;;5005028;28;20940;-91
2023/07/13 09:46:04;;;;;;;2.73;0.70;;;24.90;1.00;;;;;;4995322;28;20805;-87
2023/07/13 09:52:14;;;;;;;1.90;1.10;;;25.40;1.00;;;;;;4989747;28;20442;-81
2023/07/13 09:58:53;;;;;;;2.20;0.90;;;25.60;1.00;;;;;;4992726;28;20509;-83
2023/07/13 10:01:37;;;;;;;1.20;0.60;;;25.50;1.00;;;;;;5006109;28;20438;-81
2023/07/13 10:07:25;;;;;;;2.20;0.90;;;25.70;1.00;;;;;;5011296;28;20406;-88
2023/07/13 10:13:32;;;;;;;1.33;0.67;;;26.10;1.00;;;;;;4994920;28;20568;-88
2023/07/13 10:23:00;;;;;;;4.57;0.60;;;26.20;1.00;;;;;;5007324;28;20447;-88
2023/07/13 10:32:12;;;;;;;5.47;0.73;;;26.30;1.00;;;;;;4975454;28;20430;-87
2023/07/13 10:35:24;;;;;;;2.40;1.00;;;26.40;1.00;;;;;;4988403;28;20527;-90
2023/07/13 10:41:33;;;;;;;1.30;0.70;;;25.90;1.00;;;;;;4994753;28;20930;-91
2023/07/13 10:44:07;;;;;;;1.40;0.73;;;26.00;1.00;;;;;;4990361;28;20500;-91
2023/07/13 10:47:14;;;;;;;3.73;0.80;;;26.00;1.00;;;;;;5002402;28;20526;-91
2023/07/13 10:50:30;;;;;;;6.87;1.10;;;25.90;1.00;;;;;;5000764;28;20435;-92
2023/07/13 10:56:29;;;;;;;1.00;0.70;;;25.90;1.00;;;;;;4978985;28;20438;-92
2023/07/13 10:59:34;;;;;;;2.50;0.97;;;25.80;1.00;;;;;;5011586;28;20421;-91
2023/07/13 11:02:04;;;;;;;1.47;1.00;;;25.90;1.00;;;;;;5015424;28;20519;-90
2023/07/13 11:04:50;;;;;;;1.63;0.70;;;26.00;1.00;;;;;;5018372;28;20466;-91
2023/07/13 11:14:40;;;;;;;1.27;0.90;;;26.60;1.00;;;;;;4988826;28;20880;-89
2023/07/13 11:20:42;;;;;;;1.03;0.77;;;26.40;1.00;;;;;;4994038;28;20395;-90
2023/07/13 11:23:30;;;;;;;2.60;0.80;;;26.60;1.00;;;;;;4984613;28;20563;-90
2023/07/13 11:26:34;;;;;;;2.40;0.90;;;26.70;1.00;;;;;;4992806;28;20923;-89
2023/07/13 11:29:09;;;;;;;1.07;0.97;;;26.40;1.00;;;;;;5013901;28;20445;-91
2023/07/13 11:31:44;;;;;;;2.30;1.00;;;26.30;1.00;;;;;;5006550;28;20435;-90
2023/07/13 11:34:35;;;;;;;1.13;1.03;;;26.40;1.00;;;;;;5007652;28;20428;-91
2023/07/13 11:37:46;;;;;;;1.70;0.90;;;26.50;1.00;;;;;;4989460;28;20449;-90
2023/07/13 11:40:17;;;;;;;2.77;0.90;;;26.90;1.00;;;;;;5010073;28;20444;-90
2023/07/13 11:53:40;;;;;;;3.67;0.90;;;27.00;1.00;;;;;;4997681;28;20458;-90
2023/07/13 11:56:40;;;;;;;4.23;1.00;;;26.80;1.00;;;;;;4992214;28;20917;-90
2023/07/13 12:02:38;;;;;;;1.30;1.07;;;26.90;1.00;;;;;;5008730;28;20903;-91
2023/07/13 12:05:06;;;;;;;2.93;1.03;;;26.80;1.00;;;;;;5005115;28;20445;-87
2023/07/13 12:08:16;;;;;;;4.50;0.93;;;26.60;1.00;;;;;;5008067;28;20890;-88
2023/07/13 12:14:52;;;;;;;1.13;0.80;;;26.40;1.00;;;;;;5001862;28;20843;-87
2023/07/13 12:17:23;;;;;;;3.00;1.27;;;26.50;1.00;;;;;;4992163;28;20425;-87
2023/07/13 12:26:33;;;;;;;2.00;1.20;;;26.70;1.00;;;;;;5014280;28;20424;-89
2023/07/13 12:29:28;;;;;;;7.43;1.10;;;26.90;1.00;;;;;;4997015;28;20460;-89
2023/07/13 12:38:38;;;;;;;7.13;1.13;;;26.60;1.00;;;;;;4990782;28;20430;-89
2023/07/13 12:41:46;;;;;;;1.67;1.10;;;26.70;1.00;;;;;;5007988;28;20438;-88
2023/07/13 12:44:41;;;;;;;3.63;0.90;;;26.80;1.00;;;;;;5011491;28;20470;-89
2023/07/13 12:47:52;;;;;;;2.20;1.10;;;27.00;1.00;;;;;;4991809;28;20415;-88
2023/07/13 12:50:47;;;;;;;4.20;1.10;;;27.00;1.00;;;;;;5001474;28;20431;-89
2023/07/13 12:56:54;;;;;;;2.40;0.87;;;27.60;1.00;;;;;;5006986;28;20962;-86
2023/07/13 13:06:06;;;;;;;0.80;0.80;;;28.20;1.00;;;;;;4997094;28;20389;-90
2023/07/13 13:08:42;;;;;;;1.23;0.97;;;28.10;1.00;;;;;;5005620;28;20424;-88
2023/07/13 13:11:09;;;;;;;3.77;1.13;;;28.20;1.00;;;;;;5014480;28;20442;-88
2023/07/13 13:17:00;;;;;;;1.10;0.70;;;28.90;1.00;;;;;;5009650;28;20774;-89
2023/07/13 13:23:04;;;;;;;2.50;0.87;;;28.90;1.00;;;;;;4981325;28;20480;-89
2023/07/13 13:32:40;;;;;;;4.50;0.90;;;28.40;1.00;;;;;;4995336;28;20403;-86
2023/07/13 13:35:34;;;;;;;3.67;1.23;;;28.50;1.00;;;;;;5005705;28;20435;-90
2023/07/13 13:38:46;;;;;;;3.10;1.13;;;28.20;1.00;;;;;;4993439;28;20417;-87
2023/07/13 13:44:47;;;;;;;1.63;0.97;;;28.00;1.00;;;;;;4994341;28;20483;-88
2023/07/13 13:57:18;;;;;;;3.13;1.00;;;28.30;1.00;;;;;;4984186;28;20384;-82
2023/07/13 14:06:28;;;;;;;4.10;0.97;;;27.80;1.00;;;;;;4988724;28;20408;-84
2023/07/13 14:09:22;;;;;;;9.50;1.20;;;28.20;1.00;;;;;;5025211;28;20515;-88
2023/07/13 14:15:52;;;;;;;1.13;0.80;;;28.20;1.00;;;;;;4998627;28;20430;-89
2023/07/13 14:18:23;;;;;;;3.13;0.80;;;28.60;1.00;;;;;;4992098;28;20424;-88
2023/07/13 14:20:59;;;;;;;4.73;0.90;;;28.60;1.00;;;;;;4995631;28;20547;-88
2023/07/13 14:23:31;;;;;;;4.23;0.87;;;28.30;1.00;;;;;;5023957;28;20854;-90
2023/07/13 14:26:23;;;;;;;4.87;1.10;;;28.20;1.00;;;;;;4997944;28;20440;-91
2023/07/13 14:28:53;;;;;;;3.30;0.80;;;28.10;1.00;;;;;;4995395;28;20953;-91
2023/07/13 14:34:40;;;;;;;1.33;0.80;;;28.60;1.00;;;;;;4991575;28;20643;-90
2023/07/13 14:37:23;;;;;;;4.63;1.30;;;28.50;1.00;;;;;;5003157;28;20435;-89
2023/07/13 14:39:51;;;;;;;1.00;0.80;;;28.10;1.00;;;;;;5003743;28;20429;-90
2023/07/13 14:49:10;;;;;;;2.33;1.13;;;28.20;1.00;;;;;;4994908;28;20818;-89
2023/07/13 14:54:57;;;;;;;2.77;0.90;;;28.20;1.00;;;;;;4990665;28;20418;-87
2023/07/13 15:01:04;;;;;;;1.87;1.20;;;28.30;1.00;;;;;;5006797;28;20400;-88
2023/07/13 15:03:47;;;;;;;2.80;0.90;;;28.30;1.00;;;;;;5006460;28;20464;-86
2023/07/13 15:06:19;;;;;;;1.37;1.00;;;28.30;1.00;;;;;;4985104;28;20440;-87
2023/07/13 15:09:04;;;;;;;1.27;0.87;;;28.30;1.00;;;;;;5004015;28;20432;-88
2023/07/13 15:15:11;;;;;;;2.30;1.33;;;28.30;1.00;;;;;;4988316;28;20454;-88
2023/07/13 15:17:42;;;;;;;21.10;1.60;;;28.10;1.00;;;;;;4992455;28;20440;-87
2023/07/13 15:23:52;;;;;;;0.87;0.80;;;27.90;1.00;;;;;;4985581;28;20522;-90
2023/07/13 15:26:33;;;;;;;4.73;0.97;;;28.10;1.00;;;;;;4997080;28;20427;-90
2023/07/13 15:29:23;;;;;;;5.23;1.00;;;28.10;1.00;;;;;;5012754;28;20453;-89
2023/07/13 15:35:34;;;;;;;10.87;1.00;;;27.70;1.00;;;;;;5017384;28;20374;-87
2023/07/13 15:38:41;;;;;;;2.40;0.80;;;27.70;1.00;;;;;;5004507;28;20523;-87
2023/07/13 15:45:17;;;;;;;5.37;0.83;;;28.80;1.00;;;;;;4999578;28;20460;-88
2023/07/13 16:04:31;;;;;;;2.83;1.00;;;31.00;1.00;;;;;;5000274;28;20456;-93
2023/07/13 16:10:27;;;;;;;6.67;1.00;;;30.50;1.00;;;;;;4997166;28;20191;-91
2023/07/13 16:13:34;;;;;;;3.53;1.00;;;29.90;1.00;;;;;;4996208;28;20436;-90
2023/07/13 16:16:34;;;;;;;4.23;0.87;;;29.90;1.00;;;;;;5003931;28;20459;-91
2023/07/13 16:19:34;;;;;;;1.90;1.13;;;29.60;1.00;;;;;;4994820;28;20514;-90
2023/07/13 16:28:44;;;;;;;2.87;0.93;;;30.00;1.00;;;;;;5016378;28;20438;-89
2023/07/13 16:31:10;;;;;;;2.57;1.30;;;32.00;1.00;;;;;;4995820;28;20438;-88
2023/07/13 16:36:59;;;;;;;4.30;0.90;;;31.50;1.00;;;;;;4986181;28;20427;-90
2023/07/13 16:40:21;;;;;;;2.03;0.80;;;30.90;1.00;;;;;;5000422;28;20425;-87
2023/07/13 16:49:35;;;;;;;3.17;1.27;;;33.70;1.00;;;;;;4984715;28;20427;-87
2023/07/13 16:52:19;;;;;;;10.90;1.00;;;34.20;1.00;;;;;;5006993;28;20651;-87
2023/07/13 16:54:46;;;;;;;4.77;0.70;;;35.20;1.00;;;;;;5001772;28;20427;-87
2023/07/13 17:01:16;;;;;;;7.30;0.90;;;36.30;1.00;;;;;;4982645;28;20425;-90
2023/07/13 17:03:42;;;;;;;1.00;0.90;;;36.70;1.00;;;;;;5005147;28;20473;-88
2023/07/13 17:06:53;;;;;;;6.23;1.00;;;35.80;1.00;;;;;;4995408;28;20426;-91
2023/07/13 17:12:40;;;;;;;4.30;0.80;;;33.50;1.00;;;;;;4987166;28;20402;-90
2023/07/13 17:15:36;;;;;;;16.53;1.70;;;33.90;1.00;;;;;;4998686;28;20428;-91
2023/07/13 17:21:37;;;;;;;2.67;0.90;;;34.50;1.00;;;;;;4997249;28;20535;-89
2023/07/13 17:24:52;;;;;;;2.70;0.87;;;35.20;1.00;;;;;;4995353;28;20488;-89
2023/07/13 17:27:58;;;;;;;2.50;0.70;;;33.80;1.00;;;;;;4993574;28;20198;-91
2023/07/13 17:33:47;;;;;;;4.20;1.13;;;33.10;1.00;;;;;;4991637;28;20444;-90
2023/07/13 17:39:35;;;;;;;3.87;0.80;;;33.50;1.00;;;;;;5003059;28;20438;-85
2023/07/13 17:42:05;;;;;;;1.07;0.70;;;33.80;1.00;;;;;;4999856;28;20934;-86
2023/07/13 17:48:11;;;;;;;6.70;0.90;;;33.30;1.00;;;;;;5005173;28;20411;-87
2023/07/13 17:57:21;;;;;;;5.07;1.20;;;29.40;1.00;;;;;;4975562;28;20384;-85
2023/07/13 18:09:52;;;;;;;21.30;1.20;;;27.20;1.00;;;;;;4990538;28;20423;-92
2023/07/13 18:19:26;;;;;;;10.03;1.20;;;26.50;1.00;;;;;;4996405;28;20431;-91
2023/07/13 18:25:52;;;;;;;2.23;0.90;;;26.10;1.00;;;;;;4992592;28;20446;-93
2023/07/13 18:29:05;;;;;;;4.00;1.10;;;25.80;1.00;;;;;;4998287;28;20464;-89
2023/07/13 18:39:10;;;;;;;0.90;0.80;;;25.40;1.00;;;;;;5012934;28;20425;-91
2023/07/13 18:42:24;;;;;;;2.20;1.03;;;25.10;1.00;;;;;;4983259;28;20451;-90
2023/07/13 18:48:40;;;;;;;13.67;1.10;;;24.80;1.00;;;;;;4974614;28;20431;-88
2023/07/13 18:51:11;;;;;;;6.33;1.30;;;24.70;1.00;;;;;;5001274;28;21004;-89
2023/07/13 18:54:22;;;;;;;9.67;1.33;;;24.60;1.00;;;;;;4999476;28;20443;-88
2023/07/13 18:57:05;;;;;;;2.07;1.10;;;24.50;1.00;;;;;;5004437;28;20436;-87
2023/07/13 18:59:41;;;;;;;3.63;1.13;;;24.30;1.00;;;;;;5012335;28;20965;-87
2023/07/13 19:05:34;;;;;;;5.30;1.20;;;24.00;1.00;;;;;;4978893;28;20415;-88
2023/07/13 19:08:22;;;;;;;4.90;1.30;;;23.70;1.00;;;;;;4989926;28;20440;-87
2023/07/13 19:11:28;;;;;;;26.47;1.70;;;23.70;1.00;;;;;;4996635;28;20424;-91
2023/07/13 19:17:18;;;;;;;7.37;1.30;;;23.10;1.00;;;;;;4996337;28;20421;-87
2023/07/13 19:23:37;;;;;;;6.40;1.00;;;22.80;1.00;;;;;;4994749;28;20449;-87
2023/07/13 19:26:28;;;;;;;3.83;1.10;;;22.30;1.00;;;;;;4996368;28;20802;-87
2023/07/13 19:32:26;;;;;;;4.57;1.30;;;22.00;1.00;;;;;;5001127;28;20515;-87
2023/07/13 19:35:17;;;;;;;1.67;1.10;;;21.80;1.00;;;;;;5003284;28;20428;-87
2023/07/13 19:37:47;;;;;;;2.30;1.30;;;21.60;1.00;;;;;;4998510;28;20745;-86
2023/07/13 19:43:48;;;;;;;1.13;1.03;;;21.10;1.00;;;;;;4987405;28;20491;-87
2023/07/13 19:56:22;;;;;;;2.90;1.40;;;20.40;1.00;;;;;;4996719;28;20453;-72
2023/07/13 19:58:48;;;;;;;5.50;1.60;;;20.20;1.00;;;;;;5012778;28;20412;-72
2023/07/13 20:01:17;;;;;;;3.93;1.37;;;20.10;1.00;;;;;;4995086;28;20431;-72
2023/07/13 20:04:22;;;;;;;4.60;1.20;;;20.00;1.00;;;;;;5002325;28;20465;-82
2023/07/13 20:06:53;;;;;;;3.17;1.30;;;19.80;1.00;;;;;;5000325;28;20456;-81
2023/07/13 20:16:02;;;;;;;2.63;1.30;;;19.40;1.00;;;;;;4996005;28;20425;-83
2023/07/13 20:18:35;;;;;;;2.00;1.27;;;19.20;1.00;;;;;;5000319;28;20440;-75
2023/07/13 20:21:05;;;;;;;1.80;1.10;;;19.10;1.00;;;;;;4997413;28;20187;-74
2023/07/13 20:23:31;;;;;;;4.53;1.40;;;19.00;1.00;;;;;;4996376;28;20474;-75
2023/07/13 20:25:58;;;;;;;3.10;1.20;;;19.00;1.00;;;;;;4992634;28;20421;-72
2023/07/13 20:28:24;;;;;;;2.10;1.20;;;18.90;1.00;;;;;;4999804;28;20566;-72
2023/07/13 20:30:50;;;;;;;3.47;1.20;;;18.90;1.00;;;;;;4998559;28;20454;-72
2023/07/13 20:33:27;;;;;;;6.10;1.50;;;18.80;1.00;;;;;;4996053;28;20439;-72
2023/07/13 20:35:56;;;;;;;3.50;1.30;;;18.70;1.00;;;;;;4994958;28;20443;-72
2023/07/13 20:38:22;;;;;;;7.53;1.67;;;;;;;;;;4994697;28;20890;-72
2023/07/13 20:40:51;;;;;;;1.93;1.40;;;18.50;1.00;;;;;;4991455;28;20905;-72
2023/07/13 20:43:20;;;;;;;5.23;1.50;;;18.50;1.00;;;;;;4995466;28;20459;-72
2023/07/13 20:45:48;;;;;;;2.40;1.43;;;18.50;1.00;;;;;;4999864;28;20450;-72
2023/07/13 20:48:52;;;;;;;5.47;1.60;;;18.40;1.00;;;;;;5004036;28;20474;-80
2023/07/13 20:52:04;;;;;;;5.13;1.47;;;18.30;1.00;;;;;;5009220;28;20450;-80